createdAt,value
2022-11-30T06:27:44.789Z,34.77
2022-11-30T06:30:14.579Z,33.23
2022-11-30T06:32:46.093Z,35.13
2022-11-30T06:35:20.248Z,38.20
2022-11-30T06:37:48.433Z,34.10
2022-11-30T06:40:17.708Z,35.80
2022-11-30T06:42:47.772Z,34.53
2022-11-30T06:45:16.016Z,32.80
2022-11-30T06:47:44.809Z,36.63
2022-11-30T06:50:15.298Z,33.73
2022-11-30T06:52:43.635Z,36.90
2022-11-30T06:55:18.537Z,34.83
2022-11-30T06:57:48.332Z,34.33
2022-11-30T07:00:17.815Z,33.83
2022-11-30T07:02:46.163Z,36.60
2022-11-30T07:05:15.892Z,34.73
2022-11-30T07:07:44.120Z,37.20
2022-11-30T07:10:17.277Z,36.83
2022-11-30T07:12:50.900Z,39.73
2022-11-30T07:15:24.758Z,38.33
2022-11-30T07:18:33.995Z,36.87
2022-11-30T07:22:01.543Z,35.87
2022-11-30T07:39:07.411Z,36.07
2022-11-30T07:41:35.464Z,37.57
2022-11-30T07:44:05.376Z,39.87
2022-11-30T07:46:36.107Z,35.30
2022-11-30T07:49:04.402Z,36.17
2022-11-30T07:51:33.081Z,38.57
2022-11-30T07:54:02.695Z,36.70
2022-11-30T07:56:39.358Z,43.60
2022-11-30T07:59:11.854Z,38.40
2022-11-30T08:01:40.793Z,42.27
2022-11-30T08:04:15.352Z,41.60
2022-11-30T08:06:54.746Z,42.13
2022-11-30T08:09:24.311Z,42.37
2022-11-30T08:11:56.688Z,42.23
2022-11-30T08:14:24.729Z,40.30
2022-11-30T08:16:55.318Z,42.30
2022-11-30T08:19:24.537Z,47.53
2022-11-30T08:21:53.623Z,46.77
2022-11-30T08:24:21.980Z,51.93
2022-11-30T08:26:53.211Z,47.10
2022-11-30T08:29:22.933Z,53.87
2022-11-30T08:31:51.027Z,51.00
2022-11-30T08:34:19.041Z,49.23
2022-11-30T08:36:52.027Z,53.57
2022-11-30T08:39:23.468Z,48.20
2022-11-30T08:41:54.353Z,47.03
2022-11-30T08:44:24.162Z,45.33
2022-11-30T08:46:53.884Z,48.17
2022-11-30T08:49:24.774Z,46.03
2022-11-30T08:54:48.890Z,48.13
2022-11-30T08:57:18.729Z,47.63
2022-11-30T08:59:48.781Z,58.40
2022-11-30T09:02:19.525Z,47.30
2022-11-30T09:04:51.392Z,53.13
2022-11-30T09:07:21.605Z,46.57
2022-11-30T09:09:50.924Z,45.63
2022-11-30T09:12:19.429Z,42.53
2022-11-30T09:14:57.396Z,47.90
2022-11-30T09:17:26.663Z,49.27
2022-11-30T09:19:56.008Z,45.47
2022-11-30T09:22:26.923Z,43.90
2022-11-30T09:24:55.232Z,43.20
2022-11-30T09:27:23.644Z,47.67
2022-11-30T09:29:55.431Z,44.03
2022-11-30T09:32:23.984Z,45.10
2022-11-30T09:34:54.205Z,41.97
2022-11-30T09:37:24.710Z,47.63
2022-11-30T09:39:53.171Z,45.77
2022-11-30T09:42:47.433Z,43.40
2022-11-30T09:45:27.495Z,43.87
2022-11-30T09:48:12.154Z,46.63
2022-11-30T09:50:44.176Z,46.20
2022-11-30T09:53:29.181Z,43.23
2022-11-30T09:55:59.940Z,46.30
2022-11-30T09:58:45.290Z,46.23
2022-11-30T10:01:21.446Z,40.33
2022-11-30T10:03:50.276Z,43.80
2022-11-30T10:06:33.309Z,45.13
2022-11-30T10:09:17.436Z,40.83
2022-11-30T10:11:58.041Z,41.67
2022-11-30T10:15:10.086Z,40.90
2022-11-30T10:17:55.366Z,41.90
2022-11-30T10:20:53.034Z,43.33
2022-11-30T10:23:40.518Z,41.50
2022-11-30T10:26:15.577Z,45.03
2022-11-30T10:28:51.905Z,42.13
2022-11-30T10:31:21.943Z,43.03
2022-11-30T10:33:53.638Z,40.63
2022-11-30T10:36:32.993Z,42.63
2022-11-30T10:39:09.625Z,43.97
2022-11-30T10:41:45.482Z,39.67
2022-11-30T10:44:22.006Z,43.47
2022-11-30T10:46:58.504Z,42.37
2022-11-30T10:49:32.325Z,40.63
2022-11-30T10:52:04.810Z,43.90
2022-11-30T10:54:36.247Z,42.27
2022-11-30T10:57:09.517Z,41.70
2022-11-30T10:59:44.119Z,41.57
2022-11-30T11:02:47.951Z,39.97
2022-11-30T11:05:27.056Z,36.93
2022-11-30T11:08:19.889Z,37.20
2022-11-30T11:10:51.592Z,39.53
2022-11-30T11:13:40.670Z,41.67
2022-11-30T11:16:11.155Z,40.87
2022-11-30T11:18:54.690Z,43.43
2022-11-30T11:21:32.449Z,39.83
2022-11-30T11:24:11.444Z,38.27
2022-11-30T11:26:49.778Z,40.63
2022-11-30T11:29:32.351Z,41.97
2022-11-30T11:32:31.114Z,40.90
2022-11-30T11:35:00.079Z,42.63
2022-11-30T11:37:38.391Z,35.87
2022-11-30T11:40:16.853Z,40.37
2022-11-30T11:42:49.443Z,40.53
2022-11-30T11:45:23.302Z,41.63
2022-11-30T11:47:59.983Z,39.40
2022-11-30T11:51:06.076Z,40.77
2022-11-30T11:53:47.416Z,37.37
2022-11-30T11:56:26.505Z,40.33
2022-11-30T11:59:00.018Z,40.77
2022-11-30T12:01:47.132Z,38.57
2022-11-30T12:04:47.998Z,40.53
2022-11-30T12:07:34.064Z,45.33
2022-11-30T12:13:22.381Z,43.60
2022-11-30T12:16:04.569Z,39.67
2022-11-30T12:18:41.033Z,40.87
2022-11-30T12:21:17.331Z,42.40
2022-11-30T12:24:25.047Z,40.33
2022-11-30T12:27:07.811Z,41.73
2022-11-30T12:29:47.311Z,39.67
2022-11-30T12:32:27.075Z,43.53
2022-11-30T12:35:15.762Z,38.30
2022-11-30T12:37:54.500Z,38.37
2022-11-30T12:40:34.113Z,37.77
2022-11-30T12:43:14.096Z,40.37
2022-11-30T12:45:45.051Z,38.97
2022-11-30T12:48:25.969Z,39.67
2022-11-30T12:51:08.037Z,39.70
2022-11-30T12:53:41.773Z,36.90
2022-11-30T12:56:22.383Z,38.30
2022-11-30T12:58:59.662Z,36.40
2022-11-30T13:01:40.271Z,37.27
2022-11-30T13:04:15.534Z,36.30
2022-11-30T13:06:48.055Z,39.30
2022-11-30T13:09:24.111Z,39.93
2022-11-30T13:11:57.173Z,34.80
2022-11-30T13:14:35.738Z,35.97
2022-11-30T13:17:07.017Z,37.70
2022-11-30T13:19:49.962Z,37.20
2022-11-30T13:22:26.195Z,38.50
2022-11-30T13:25:10.284Z,36.33
2022-11-30T13:27:47.554Z,34.13
2022-11-30T13:30:35.770Z,39.50
2022-11-30T13:33:41.467Z,40.90
2022-11-30T13:36:26.854Z,37.40
2022-11-30T13:39:27.671Z,36.37
2022-11-30T13:42:34.246Z,37.90
2022-11-30T13:45:23.340Z,37.03
2022-11-30T13:47:55.033Z,38.00
2022-11-30T13:50:28.630Z,34.93
2022-11-30T13:53:20.061Z,34.50
2022-11-30T13:55:54.939Z,35.67
2022-11-30T13:58:23.067Z,40.07
2022-11-30T14:01:23.036Z,38.27
2022-11-30T14:04:24.725Z,38.03
2022-11-30T14:06:59.448Z,33.87
2022-11-30T14:09:59.534Z,38.13
2022-11-30T14:12:53.027Z,41.73
2022-11-30T14:15:56.693Z,38.13
2022-11-30T14:18:32.841Z,34.43
2022-11-30T14:21:02.695Z,32.13
2022-11-30T14:23:46.942Z,33.27
2022-11-30T14:26:17.524Z,34.20
2022-11-30T14:28:51.202Z,33.53
2022-11-30T14:31:24.183Z,35.50
2022-11-30T14:33:58.590Z,32.30
2022-11-30T14:36:37.667Z,30.70
2022-11-30T14:39:25.156Z,33.40
2022-11-30T14:41:53.412Z,32.93
2022-11-30T14:44:21.603Z,31.20
2022-11-30T14:46:49.849Z,33.40
2022-11-30T14:49:20.921Z,31.77
2022-11-30T14:51:52.915Z,32.73
2022-11-30T14:54:45.569Z,29.33
2022-11-30T14:57:23.533Z,31.67
2022-11-30T14:59:56.947Z,27.90
2022-11-30T15:02:30.813Z,27.20
2022-11-30T15:05:00.391Z,29.57
2022-11-30T15:07:30.771Z,30.83
2022-11-30T15:10:05.703Z,26.60
2022-11-30T15:12:37.649Z,29.33
2022-11-30T15:15:12.384Z,29.73
2022-11-30T15:17:55.125Z,25.47
2022-11-30T15:20:40.497Z,27.77
2022-11-30T15:23:15.048Z,24.17
2022-11-30T15:25:48.096Z,24.03
2022-11-30T15:28:20.685Z,27.47
2022-11-30T15:30:53.320Z,24.90
2022-11-30T15:33:24.352Z,25.23
2022-11-30T15:36:18.797Z,26.37
2022-11-30T15:38:50.459Z,27.73
2022-11-30T15:41:22.581Z,27.30
2022-11-30T15:43:53.049Z,27.30
2022-11-30T15:46:32.879Z,27.30
2022-11-30T15:49:17.333Z,26.53
2022-11-30T15:51:47.649Z,25.83
2022-11-30T15:54:15.946Z,24.17
2022-11-30T15:56:57.883Z,24.33
2022-11-30T15:59:29.511Z,27.60
2022-11-30T16:02:08.671Z,23.57
2022-11-30T16:05:09.596Z,26.47
2022-11-30T16:07:56.457Z,26.70
2022-11-30T16:10:26.978Z,27.30
2022-11-30T16:12:57.173Z,28.33
2022-11-30T16:15:27.331Z,28.33
2022-11-30T16:17:59.755Z,28.17
2022-11-30T16:20:29.267Z,28.80
2022-11-30T16:23:01.200Z,30.77
2022-11-30T16:25:33.626Z,29.30
2022-11-30T16:28:59.487Z,31.77
2022-11-30T16:31:49.026Z,30.57
2022-11-30T16:38:01.537Z,30.27
2022-11-30T16:40:50.679Z,29.13
2022-11-30T16:43:22.369Z,32.13
2022-11-30T16:45:51.724Z,31.33
2022-11-30T16:48:26.480Z,32.73
2022-11-30T16:50:59.910Z,36.57
2022-11-30T16:53:42.283Z,33.07
2022-11-30T16:56:23.451Z,30.80
2022-11-30T16:58:52.408Z,31.67
2022-11-30T17:01:35.538Z,33.67
2022-11-30T17:04:11.910Z,33.43
2022-11-30T17:06:53.666Z,36.33
2022-11-30T17:09:43.317Z,35.03
2022-11-30T17:12:25.950Z,34.73
2022-11-30T17:14:58.476Z,33.87
2022-11-30T17:17:28.022Z,36.07
2022-11-30T17:19:55.938Z,33.00
2022-11-30T17:22:23.971Z,33.47
2022-11-30T17:24:51.850Z,31.33
2022-11-30T17:27:19.732Z,31.70
2022-11-30T17:29:49.848Z,30.33
2022-11-30T17:32:17.803Z,30.40
2022-11-30T17:34:50.756Z,29.57
2022-11-30T17:37:19.376Z,31.77
2022-11-30T17:39:47.240Z,31.57
2022-11-30T17:42:17.390Z,27.43
2022-11-30T17:44:48.038Z,27.43
2022-11-30T17:47:19.151Z,25.70
2022-11-30T17:49:48.916Z,25.43
2022-11-30T17:52:18.266Z,25.60
2022-11-30T17:54:50.771Z,27.43
2022-11-30T17:57:22.321Z,26.83
2022-11-30T17:59:59.681Z,24.20
2022-11-30T18:02:32.550Z,20.07
2022-11-30T18:05:09.350Z,23.63
2022-11-30T18:07:45.952Z,24.50
2022-11-30T18:10:21.495Z,22.30
2022-11-30T18:12:50.502Z,23.83
2022-11-30T18:15:19.216Z,23.80
2022-11-30T18:17:47.770Z,24.13
2022-11-30T18:20:18.900Z,22.97
2022-11-30T18:22:46.945Z,23.07
2022-11-30T18:25:15.751Z,22.03
2022-11-30T18:27:44.511Z,20.10
2022-11-30T18:30:14.112Z,20.60
2022-11-30T18:32:59.150Z,22.90
2022-11-30T18:35:38.691Z,22.60
2022-11-30T19:07:20.858Z,19.17
2022-11-30T19:09:57.803Z,18.57
2022-11-30T19:12:31.142Z,18.37
2022-11-30T19:14:59.543Z,18.60
2022-11-30T19:17:37.733Z,20.73
2022-11-30T19:20:07.233Z,21.23
2022-11-30T19:22:38.118Z,26.20
2022-11-30T19:25:07.525Z,23.50
2022-11-30T19:27:36.271Z,21.37
2022-11-30T19:30:06.580Z,21.97
2022-11-30T19:32:36.949Z,23.03
2022-11-30T19:35:13.905Z,16.33
2022-11-30T19:37:43.781Z,19.97
2022-11-30T19:40:13.529Z,19.97
2022-11-30T19:42:46.483Z,19.40
2022-11-30T19:45:18.083Z,20.70
2022-11-30T19:47:46.333Z,18.93
2022-11-30T19:50:23.239Z,18.80
2022-11-30T19:52:57.705Z,17.50
2022-11-30T19:55:33.213Z,20.33
